Time;durP1;ratioP1;P1;durP2;ratioP2;P2;SDS_P1;SDS_P2;PMS_P1;PMS_P2;Temp;Humidity;BMP_temperature;BMP_pressure;BME280_temperature;BME280_humidity;BME280_pressure;Samples;Min_cycle;Max_cycle;Signal;HPM_P1;HPM_P2
2023/12/27 00:00:29;;;;;;;;;11.00;9.00;;;;;11.12;90.75;101778.63;5102823;27;45385;-53
2023/12/27 00:02:54;;;;;;;;;8.00;8.00;;;;;11.12;90.95;101778.63;5103497;27;45406;-53
2023/12/27 00:05:19;;;;;;;;;6.67;6.67;;;;;11.12;90.79;101787.50;5101248;27;46264;-52
2023/12/27 00:07:45;;;;;;;;;7.67;7.67;;;;;11.12;90.88;101783.94;5100336;27;68465;-53
2023/12/27 00:10:10;;;;;;;;;7.67;7.00;;;;;11.13;90.86;101775.03;5100487;27;67437;-50
2023/12/27 00:12:36;;;;;;;;;10.00;7.33;;;;;11.13;90.90;101757.25;5103848;27;45521;-51
2023/12/27 00:15:02;;;;;;;;;7.67;7.67;;;;;11.14;90.61;101764.34;5102961;27;46279;-51
2023/12/27 00:17:27;;;;;;;;;4.67;4.67;;;;;11.13;90.48;101762.59;5101292;27;45337;-52
2023/12/27 00:19:52;;;;;;;;;10.33;9.67;;;;;11.12;90.73;101765.31;5099636;27;63892;-50
2023/12/27 00:22:17;;;;;;;;;9.00;9.00;;;;;11.11;90.62;101776.88;5113892;27;45466;-51
2023/12/27 00:24:43;;;;;;;;;8.00;8.00;;;;;11.06;90.77;101772.59;5098260;27;75133;-52
2023/12/27 00:27:08;;;;;;;;;7.00;6.67;;;;;11.05;90.63;101773.53;5111998;27;62851;-51
2023/12/27 00:29:33;;;;;;;;;8.67;8.00;;;;;11.03;90.85;101769.16;5100349;27;68298;-51
2023/12/27 00:31:59;;;;;;;;;5.33;5.33;;;;;11.03;90.93;101759.41;5101474;27;64062;-49
2023/12/27 00:34:24;;;;;;;;;9.33;7.00;;;;;11.03;90.81;101751.44;5089382;27;46062;-52
2023/12/27 00:36:50;;;;;;;;;8.00;8.00;;;;;10.97;90.58;101748.13;5085716;27;45300;-53
2023/12/27 00:39:16;;;;;;;;;5.67;5.67;;;;;11.00;90.73;101756.00;5118440;27;45446;-52
2023/12/27 00:41:42;;;;;;;;;6.67;6.67;;;;;10.98;90.85;101749.88;5114401;27;45579;-53
2023/12/27 00:44:07;;;;;;;;;8.00;8.00;;;;;10.99;90.74;101735.59;5116188;27;74993;-51
2023/12/27 00:46:32;;;;;;;;;9.33;8.00;;;;;10.99;90.74;101731.16;5113771;27;45356;-52
2023/12/27 00:48:58;;;;;;;;;7.00;6.00;;;;;10.98;90.89;101732.09;5105866;27;68276;-50
2023/12/27 00:51:23;;;;;;;;;5.67;5.67;;;;;10.97;90.80;101732.16;5103954;27;59348;-50
2023/12/27 00:53:49;;;;;;;;;6.67;6.00;;;;;10.98;90.94;101745.41;5117383;27;68055;-53
2023/12/27 00:56:15;;;;;;;;;10.00;7.00;;;;;10.98;90.79;101739.22;5105476;27;45518;-53
2023/12/27 00:58:40;;;;;;;;;6.00;5.00;;;;;10.96;90.82;101738.41;5102519;27;45498;-52
2023/12/27 01:01:05;;;;;;;;;10.33;7.00;;;;;10.94;90.98;101719.81;5092216;27;45268;-52
2023/12/27 01:03:31;;;;;;;;;7.00;5.00;;;;;10.94;90.58;101711.84;5106514;27;74425;-49
2023/12/27 01:05:56;;;;;;;;;5.67;5.67;;;;;10.92;90.67;101711.91;5084225;27;66195;-51
2023/12/27 01:08:22;;;;;;;;;8.33;7.00;;;;;10.94;90.95;101717.16;5100932;27;68580;-51
2023/12/27 01:10:47;;;;;;;;;9.33;7.67;;;;;10.96;90.80;101731.25;5104592;27;45457;-49
2023/12/27 01:13:12;;;;;;;;;7.00;7.00;;;;;10.95;90.54;101732.22;5106289;27;64177;-52
2023/12/27 01:15:38;;;;;;;;;5.67;4.00;;;;;10.93;90.84;101748.22;5102242;27;72052;-52
2023/12/27 01:18:03;;;;;;;;;6.00;6.00;;;;;10.95;90.54;101744.63;5109964;27;46095;-52
2023/12/27 01:20:28;;;;;;;;;7.33;6.67;;;;;10.95;90.83;101739.31;5113196;27;45724;-51
2023/12/27 01:22:54;;;;;;;;;6.00;5.33;;;;;10.94;90.57;101738.47;5116389;27;45443;-52
2023/12/27 01:25:19;;;;;;;;;5.00;5.00;;;;;10.94;90.44;101735.78;5102448;27;45524;-53
2023/12/27 01:27:46;;;;;;;;;7.00;7.00;;;;;10.93;90.32;101731.38;5106109;27;68313;-53
2023/12/27 01:30:14;;;;;;;;;11.00;5.67;;;;;10.95;90.56;101721.56;5116351;27;45406;-52
2023/12/27 01:32:39;;;;;;;;;5.67;5.67;;;;;10.95;90.29;101718.03;5118087;27;46418;-50
2023/12/27 01:35:05;;;;;;;;;8.00;8.00;;;;;10.96;90.44;101717.97;5115348;27;68597;-51
2023/12/27 01:37:31;;;;;;;;;7.33;5.67;;;;;10.96;90.16;101714.44;5095277;27;45338;-51
2023/12/27 01:39:57;;;;;;;;;8.00;7.00;;;;;10.94;89.94;101727.81;5111908;27;45726;-50
2023/12/27 01:42:22;;;;;;;;;6.67;6.67;;;;;10.91;90.03;101726.13;5111481;27;45598;-51
2023/12/27 01:44:47;;;;;;;;;4.00;4.00;;;;;10.93;89.96;101744.69;5099005;27;72945;-53
2023/12/27 01:47:13;;;;;;;;;6.00;5.00;;;;;10.93;90.10;101734.91;5109662;27;45349;-51
2023/12/27 01:49:39;;;;;;;;;7.67;6.33;;;;;10.98;90.22;101739.22;5103199;27;45573;-48
2023/12/27 01:52:05;;;;;;;;;8.00;6.00;;;;;10.99;89.74;101739.16;5102192;27;45998;-52
2023/12/27 01:54:30;;;;;;;;;8.67;6.00;;;;;11.03;90.13;101729.25;5086337;27;45385;-54
2023/12/27 01:56:56;;;;;;;;;6.67;5.33;;;;;11.06;90.02;101708.69;5102584;27;62078;-53
2023/12/27 01:59:22;;;;;;;;;6.33;6.00;;;;;11.08;89.29;101713.97;5097258;27;45700;-52
2023/12/27 02:01:47;;;;;;;;;6.67;6.67;;;;;11.08;88.73;101705.97;5084756;27;45303;-52
2023/12/27 02:04:13;;;;;;;;;10.33;7.33;;;;;11.03;88.43;101683.97;5109587;27;73326;-49
2023/12/27 02:06:38;;;;;;;;;7.67;6.00;;;;;10.99;88.57;101685.91;5111062;27;45519;-51
2023/12/27 02:09:03;;;;;;;;;7.00;7.00;;;;;10.91;88.29;101691.53;5089753;27;69432;-50
2023/12/27 02:11:29;;;;;;;;;7.00;5.67;;;;;10.88;88.82;101693.44;5097264;27;75278;-52
2023/12/27 02:13:54;;;;;;;;;7.33;5.33;;;;;10.88;88.66;101714.72;5106011;27;45379;-52
2023/12/27 02:16:21;;;;;;;;;7.00;7.00;;;;;10.87;88.97;101728.94;5109774;27;68078;-51
2023/12/27 02:18:47;;;;;;;;;7.00;5.67;;;;;10.87;88.77;101705.88;5103160;27;45523;-49
2023/12/27 02:21:13;;;;;;;;;7.00;6.00;;;;;10.85;88.61;101674.91;5101260;27;46144;-50
2023/12/27 02:23:39;;;;;;;;;7.00;6.00;;;;;10.84;88.42;101683.81;5113221;27;45511;-52
2023/12/27 02:26:05;;;;;;;;;7.33;7.00;;;;;10.80;88.65;101682.22;5086270;27;61045;-49
2023/12/27 02:28:30;;;;;;;;;5.00;5.00;;;;;10.74;88.60;101678.84;5097358;27;58301;-52
2023/12/27 02:30:55;;;;;;;;;5.00;5.00;;;;;10.70;88.50;101679.88;5099530;27;75569;-50
2023/12/27 02:33:21;;;;;;;;;9.67;6.00;;;;;10.69;88.83;101699.44;5110387;27;45433;-50
2023/12/27 02:35:46;;;;;;;;;7.00;6.00;;;;;10.67;88.88;101701.25;5105306;27;62707;-49
2023/12/27 02:38:11;;;;;;;;;6.00;4.33;;;;;10.64;89.13;101701.38;5110788;27;67274;-51
2023/12/27 02:40:37;;;;;;;;;7.33;4.33;;;;;10.62;89.11;101687.25;5082310;27;75535;-52
2023/12/27 02:43:02;;;;;;;;;7.00;7.00;;;;;10.62;88.93;101673.94;5108432;27;72159;-50
2023/12/27 02:45:28;;;;;;;;;5.33;5.00;;;;;10.61;88.94;101669.56;5102102;27;45260;-51
2023/12/27 02:47:53;;;;;;;;;5.33;5.33;;;;;10.63;88.93;101665.06;5108500;27;65717;-52
2023/12/27 02:50:18;;;;;;;;;7.33;5.67;;;;;10.61;88.66;101650.06;5107218;27;75584;-52
2023/12/27 02:52:43;;;;;;;;;5.00;5.00;;;;;10.61;88.32;101645.59;5097804;27;72210;-49
2023/12/27 02:55:09;;;;;;;;;6.67;6.00;;;;;10.62;88.24;101650.00;5081230;27;67939;-51
2023/12/27 02:57:34;;;;;;;;;8.33;6.00;;;;;10.60;88.21;101657.19;5106704;27;67526;-51
2023/12/27 03:00:00;;;;;;;;;6.00;6.00;;;;;10.61;88.20;101664.22;5102520;27;46934;-50
2023/12/27 03:02:25;;;;;;;;;5.00;4.33;;;;;10.64;88.43;101669.47;5110891;27;56102;-51
2023/12/27 03:04:50;;;;;;;;;4.00;4.00;;;;;10.68;88.26;101667.56;5086903;27;68068;-53
2023/12/27 03:07:16;;;;;;;;;3.33;3.00;;;;;10.73;88.16;101657.63;5098658;27;45420;-52
2023/12/27 03:09:42;;;;;;;;;5.00;4.00;;;;;10.77;87.84;101656.56;5102892;27;46185;-51
2023/12/27 03:12:07;;;;;;;;;4.67;4.33;;;;;10.81;87.51;101649.31;5110077;27;45419;-52
2023/12/27 03:14:33;;;;;;;;;4.00;4.00;;;;;10.80;87.12;101643.13;5110151;27;69351;-50
2023/12/27 03:16:59;;;;;;;;;5.00;4.00;;;;;10.82;87.09;101643.06;5103427;27;45592;-52
2023/12/27 03:19:25;;;;;;;;;8.33;4.33;;;;;10.81;87.05;101639.56;5110067;27;45393;-53
2023/12/27 03:21:50;;;;;;;;;5.67;5.67;;;;;10.82;86.92;101641.31;5113973;27;45396;-49
2023/12/27 03:24:15;;;;;;;;;7.00;4.67;;;;;10.79;86.50;101636.06;5085876;27;45639;-52
2023/12/27 03:26:41;;;;;;;;;5.00;5.00;;;;;10.80;86.74;101628.97;5102513;27;45456;-51
2023/12/27 03:29:06;;;;;;;;;5.33;4.00;;;;;10.76;86.45;101634.41;5098625;27;64442;-50
2023/12/27 03:31:31;;;;;;;;;8.00;6.00;;;;;10.79;86.36;101621.91;5102309;27;65845;-50
2023/12/27 03:33:57;;;;;;;;;5.00;5.00;;;;;10.76;86.70;101629.06;5110116;27;68608;-49
2023/12/27 03:36:23;;;;;;;;;5.00;5.00;;;;;10.77;86.54;101624.63;5101527;27;45389;-51
2023/12/27 03:38:49;;;;;;;;;4.67;4.67;;;;;10.80;86.74;101623.66;5102962;27;46407;-52
2023/12/27 03:41:14;;;;;;;;;5.00;4.33;;;;;10.80;86.54;101607.69;5103873;27;73051;-52
2023/12/27 03:43:39;;;;;;;;;5.00;3.67;;;;;10.77;86.12;101603.34;5104241;27;69388;-53
2023/12/27 03:46:05;;;;;;;;;6.00;5.00;;;;;10.73;86.52;101596.41;5083739;27;69327;-54
2023/12/27 03:48:30;;;;;;;;;5.33;5.00;;;;;10.68;86.59;101601.91;5097378;27;60329;-52
2023/12/27 03:50:55;;;;;;;;;5.00;2.67;;;;;10.64;86.98;101602.94;5097919;27;45287;-53
2023/12/27 03:53:20;;;;;;;;;7.33;6.00;;;;;10.65;87.07;101611.78;5099390;27;69227;-53
2023/12/27 03:55:46;;;;;;;;;5.00;4.00;;;;;10.65;87.17;101601.13;5100790;27;69413;-51
2023/12/27 03:58:11;;;;;;;;;5.00;4.00;;;;;10.64;87.03;101605.59;5111633;27;63416;-52
2023/12/27 04:00:36;;;;;;;;;6.00;5.00;;;;;10.66;87.38;101598.41;5092379;27;45322;-53
2023/12/27 04:03:02;;;;;;;;;3.00;3.00;;;;;10.68;87.12;101595.72;5086165;27;65883;-52
2023/12/27 04:05:27;;;;;;;;;6.00;4.00;;;;;10.70;87.02;101596.50;5083246;27;45500;-52
2023/12/27 04:07:53;;;;;;;;;5.00;5.00;;;;;10.69;86.83;101589.44;5112647;27;75826;-52
2023/12/27 04:10:18;;;;;;;;;6.33;6.33;;;;;10.68;86.67;101585.94;5102368;27;45446;-53
2023/12/27 04:12:43;;;;;;;;;3.00;3.00;;;;;10.69;87.02;101581.47;5104114;27;67990;-53
2023/12/27 04:15:09;;;;;;;;;7.33;5.00;;;;;10.64;86.69;101578.13;5103623;27;68795;-49
2023/12/27 04:17:34;;;;;;;;;6.33;4.00;;;;;10.61;86.92;101570.25;5102843;27;46597;-53
2023/12/27 04:20:00;;;;;;;;;8.33;4.67;;;;;10.59;87.14;101575.66;5101678;27;45308;-52
2023/12/27 04:22:25;;;;;;;;;3.00;3.00;;;;;10.58;87.12;101566.78;5102146;27;68056;-51
2023/12/27 04:24:50;;;;;;;;;9.00;4.33;;;;;10.58;86.96;101555.28;5102478;27;61996;-50
2023/12/27 04:27:15;;;;;;;;;4.00;4.00;;;;;10.58;87.09;101557.94;5102029;27;75794;-51
2023/12/27 04:29:41;;;;;;;;;3.67;3.67;;;;;10.54;87.07;101551.88;5109409;27;68478;-52
2023/12/27 04:32:06;;;;;;;;;3.67;3.33;;;;;10.52;87.10;101560.81;5106412;27;68965;-51
2023/12/27 04:34:31;;;;;;;;;5.00;5.00;;;;;10.50;87.36;101557.38;5111654;27;45393;-51
2023/12/27 04:36:57;;;;;;;;;4.33;4.33;;;;;10.46;87.11;101543.31;5112893;27;74539;-53
2023/12/27 04:39:22;;;;;;;;;3.00;3.00;;;;;10.42;87.07;101552.34;5105069;27;70192;-54
2023/12/27 04:41:47;;;;;;;;;4.00;4.00;;;;;10.38;87.26;101542.75;5105365;27;45341;-52
2023/12/27 04:44:13;;;;;;;;;4.00;4.00;;;;;10.39;87.48;101532.03;5109334;27;63597;-52
2023/12/27 04:46:38;;;;;;;;;4.67;2.67;;;;;10.40;87.21;101539.09;5098208;27;52724;-52
2023/12/27 04:49:04;;;;;;;;;5.33;5.00;;;;;10.36;87.11;101531.28;5109932;27;66666;-50
2023/12/27 04:51:30;;;;;;;;;4.67;4.67;;;;;10.36;86.79;101536.59;5102525;27;45291;-52
2023/12/27 04:53:55;;;;;;;;;5.00;5.00;;;;;10.35;87.10;101534.84;5111673;27;45339;-51
2023/12/27 04:56:21;;;;;;;;;4.00;4.00;;;;;10.37;86.75;101536.53;5113711;27;46044;-52
2023/12/27 04:58:46;;;;;;;;;4.00;4.00;;;;;10.35;86.94;101550.78;5116359;27;45437;-50
2023/12/27 05:01:12;;;;;;;;;4.00;3.00;;;;;10.32;86.51;101526.97;5105623;27;45516;-52
2023/12/27 05:03:40;;;;;;;;;3.67;3.67;;;;;10.35;86.59;101526.84;5094364;27;46552;-53
2023/12/27 05:06:08;;;;;;;;;4.67;3.00;;;;;10.35;86.71;101525.13;5104542;27;46307;-53
2023/12/27 05:08:34;;;;;;;;;5.67;4.33;;;;;10.39;86.58;101539.13;5101420;27;72057;-52
2023/12/27 05:11:00;;;;;;;;;3.33;3.00;;;;;10.41;86.51;101531.97;5103833;27;45552;-52
2023/12/27 05:13:25;;;;;;;;;3.00;3.00;;;;;10.39;86.19;101524.06;5102140;27;45376;-52
2023/12/27 05:15:50;;;;;;;;;4.33;4.00;;;;;10.33;86.01;101532.22;5112376;27;59118;-51
2023/12/27 05:18:16;;;;;;;;;7.00;4.00;;;;;10.33;86.15;101542.00;5099196;27;71761;-51
2023/12/27 05:20:41;;;;;;;;;6.00;4.00;;;;;10.33;86.44;101544.69;5101715;27;63232;-51
2023/12/27 05:23:07;;;;;;;;;5.00;3.00;;;;;10.31;86.34;101530.56;5111283;27;45572;-51
2023/12/27 05:25:32;;;;;;;;;4.00;2.00;;;;;10.27;86.63;101528.03;5102282;27;45814;-52
2023/12/27 05:27:57;;;;;;;;;4.00;4.00;;;;;10.29;86.67;101538.59;5103103;27;67954;-52
2023/12/27 05:30:23;;;;;;;;;5.67;4.00;;;;;10.29;86.14;101532.41;5101928;27;68201;-52
2023/12/27 05:32:48;;;;;;;;;5.00;5.00;;;;;10.27;86.26;101536.00;5111618;27;54743;-54
2023/12/27 05:35:14;;;;;;;;;5.00;4.00;;;;;10.29;86.45;101535.94;5103771;27;46176;-50
2023/12/27 05:37:39;;;;;;;;;5.00;3.67;;;;;10.32;86.30;101535.81;5103929;27;45355;-52
2023/12/27 05:40:05;;;;;;;;;3.00;3.00;;;;;10.32;86.17;101538.47;5103755;27;61408;-53
2023/12/27 05:42:30;;;;;;;;;3.00;3.00;;;;;10.33;86.26;101534.03;5112268;27;45551;-52
2023/12/27 05:44:56;;;;;;;;;3.00;3.00;;;;;10.34;85.98;101526.00;5111318;27;75293;-51
2023/12/27 05:47:21;;;;;;;;;5.33;3.00;;;;;10.32;85.86;101521.66;5103413;27;45429;-49
2023/12/27 05:49:46;;;;;;;;;2.33;2.00;;;;;10.31;85.73;101515.50;5109890;27;45367;-52
2023/12/27 05:52:12;;;;;;;;;3.67;3.67;;;;;10.29;85.66;101509.34;5101980;27;69193;-52
2023/12/27 05:54:38;;;;;;;;;4.00;4.00;;;;;10.26;85.92;101514.78;5106566;27;46308;-52
2023/12/27 05:57:03;;;;;;;;;4.33;4.33;;;;;10.24;85.81;101513.97;5115467;27;45404;-53
2023/12/27 05:59:28;;;;;;;;;2.67;2.67;;;;;10.23;85.82;101517.53;5112932;27;45315;-50
2023/12/27 06:01:54;;;;;;;;;3.67;2.00;;;;;10.24;85.77;101520.13;5080653;27;46916;-51
2023/12/27 06:04:21;;;;;;;;;4.00;4.00;;;;;10.24;85.91;101511.31;5103980;27;46065;-53
2023/12/27 06:06:49;;;;;;;;;4.00;3.00;;;;;10.22;85.93;101513.16;5114034;27;45739;-52
2023/12/27 06:09:15;;;;;;;;;6.00;4.00;;;;;10.19;85.85;101518.59;5094032;27;45480;-53
2023/12/27 06:11:41;;;;;;;;;3.00;3.00;;;;;10.16;86.05;101518.72;5111446;27;45477;-50
2023/12/27 06:14:06;;;;;;;;;4.00;4.00;;;;;10.14;86.27;101523.19;5110479;27;57175;-50
2023/12/27 06:16:32;;;;;;;;;3.00;3.00;;;;;10.07;86.45;101522.56;5118096;27;73179;-52
2023/12/27 06:18:59;;;;;;;;;2.00;2.00;;;;;10.06;86.62;101516.41;5101354;27;45291;-49
2023/12/27 06:21:25;;;;;;;;;2.33;2.33;;;;;10.04;86.47;101523.53;5099402;27;45708;-50
2023/12/27 06:23:50;;;;;;;;;3.00;3.00;;;;;10.03;86.95;101527.13;5099275;27;50256;-51
2023/12/27 06:26:15;;;;;;;;;7.00;4.00;;;;;10.03;86.89;101526.25;5106703;27;45311;-52
2023/12/27 06:28:43;;;;;;;;;3.00;3.00;;;;;10.04;87.03;101520.03;5093757;27;68037;-50
2023/12/27 06:31:08;;;;;;;;;6.00;5.00;;;;;10.04;86.73;101523.53;5099547;27;45907;-51
2023/12/27 06:33:34;;;;;;;;;4.33;3.00;;;;;10.05;86.93;101524.41;5104954;27;46262;-51
2023/12/27 06:35:59;;;;;;;;;4.67;3.00;;;;;10.05;86.58;101529.72;5113400;27;73240;-50
2023/12/27 06:38:25;;;;;;;;;3.00;3.00;;;;;10.05;86.72;101529.72;5100098;27;67794;-51
2023/12/27 06:40:50;;;;;;;;;4.00;4.00;;;;;10.03;86.79;101521.81;5099893;27;45539;-53
2023/12/27 06:43:15;;;;;;;;;4.00;3.00;;;;;10.01;86.93;101518.34;5099660;27;73830;-49
2023/12/27 06:45:40;;;;;;;;;3.00;3.00;;;;;9.99;86.76;101512.22;5098224;27;71478;-52
2023/12/27 06:48:06;;;;;;;;;4.33;2.33;;;;;9.97;87.01;101508.72;5099282;27;69981;-51
2023/12/27 06:50:31;;;;;;;;;8.00;4.67;;;;;9.96;86.99;101522.97;5106685;27;45589;-51
2023/12/27 06:52:57;;;;;;;;;3.33;3.33;;;;;9.95;86.95;101510.59;5110933;27;45978;-51
2023/12/27 06:55:22;;;;;;;;;4.67;4.67;;;;;9.94;86.99;101509.72;5099260;27;45389;-48
2023/12/27 06:57:48;;;;;;;;;4.33;4.33;;;;;9.92;87.17;101508.03;5107783;27;49769;-52
2023/12/27 07:00:14;;;;;;;;;3.33;3.00;;;;;9.90;87.37;101509.88;5107157;27;45354;-50
2023/12/27 07:02:40;;;;;;;;;8.00;5.00;;;;;9.85;87.61;101512.69;5111889;27;47091;-53
2023/12/27 07:05:06;;;;;;;;;4.33;4.33;;;;;9.83;87.46;101503.03;5089490;27;45411;-49
2023/12/27 07:07:32;;;;;;;;;7.67;5.33;;;;;9.82;87.45;101501.34;5111997;27;45291;-52
2023/12/27 07:09:57;;;;;;;;;4.33;4.00;;;;;9.81;87.62;101502.25;5097511;27;45570;-51
2023/12/27 07:12:23;;;;;;;;;3.33;3.33;;;;;9.80;87.54;101503.16;5112215;27;46952;-52
2023/12/27 07:14:49;;;;;;;;;4.33;4.00;;;;;9.75;87.95;101498.00;5098218;27;45410;-52
2023/12/27 07:17:15;;;;;;;;;5.00;5.00;;;;;9.75;87.78;101495.34;5112377;27;45742;-53
2023/12/27 07:19:40;;;;;;;;;4.00;4.00;;;;;9.74;87.73;101489.19;5107562;27;45501;-51
2023/12/27 07:22:06;;;;;;;;;3.67;3.67;;;;;9.74;87.41;101486.50;5100111;27;72109;-52
2023/12/27 07:24:31;;;;;;;;;7.33;4.33;;;;;9.65;87.90;101494.81;5109595;27;45345;-49
2023/12/27 07:26:56;;;;;;;;;7.67;4.00;;;;;9.69;87.77;101501.75;5105714;27;45324;-53
2023/12/27 07:29:22;;;;;;;;;7.33;6.00;;;;;9.68;87.60;101501.81;5098172;27;45333;-51
2023/12/27 07:31:47;;;;;;;;;3.67;3.67;;;;;9.67;87.43;101490.28;5099590;27;61541;-51
2023/12/27 07:34:14;;;;;;;;;6.33;4.00;;;;;9.68;87.88;101484.06;5107922;27;53784;-51
2023/12/27 07:36:40;;;;;;;;;5.67;4.67;;;;;9.68;87.65;101484.06;5108312;27;45333;-51
2023/12/27 07:39:06;;;;;;;;;5.00;4.00;;;;;9.67;87.52;101484.13;5111481;27;45465;-53
2023/12/27 07:41:32;;;;;;;;;5.00;4.00;;;;;9.63;87.81;101491.34;5091861;27;45253;-50
2023/12/27 07:43:57;;;;;;;;;4.00;4.00;;;;;9.63;87.74;101488.69;5111534;27;45721;-52
2023/12/27 07:46:23;;;;;;;;;5.00;5.00;;;;;9.65;87.86;101486.84;5106569;27;45476;-50
2023/12/27 07:48:48;;;;;;;;;3.00;3.00;;;;;9.66;87.53;101479.72;5111155;27;52702;-49
2023/12/27 07:51:13;;;;;;;;;3.67;3.67;;;;;9.68;87.38;101477.91;5102273;27;46252;-50
2023/12/27 07:53:39;;;;;;;;;4.00;4.00;;;;;9.69;87.50;101479.66;5110819;27;47898;-49
2023/12/27 07:56:08;;;;;;;;;6.00;3.33;;;;;9.69;87.30;101480.50;5084636;27;66718;-50
2023/12/27 07:58:33;;;;;;;;;4.33;4.33;;;;;9.71;86.77;101475.13;5107939;27;45441;-52
2023/12/27 08:00:59;;;;;;;;;4.00;4.00;;;;;9.71;86.91;101478.66;5087441;27;65826;-51
2023/12/27 08:03:24;;;;;;;;;3.67;3.67;;;;;9.72;87.10;101483.03;5104374;27;45424;-52
2023/12/27 08:05:51;;;;;;;;;3.00;3.00;;;;;9.74;87.03;101480.34;5103566;27;56938;-49
2023/12/27 08:08:16;;;;;;;;;3.00;3.00;;;;;9.77;86.67;101474.91;5104487;27;45622;-50
2023/12/27 08:10:43;;;;;;;;;5.67;4.00;;;;;9.77;86.02;101481.09;5104503;27;74447;-48
2023/12/27 08:13:08;;;;;;;;;3.33;3.33;;;;;9.78;86.05;101487.28;5101448;27;45548;-52
2023/12/27 08:15:34;;;;;;;;;5.00;5.00;;;;;9.80;86.19;101474.78;5103471;27;45744;-52
2023/12/27 08:18:02;;;;;;;;;2.33;2.33;;;;;9.84;86.23;101486.19;5101943;27;45535;-49
2023/12/27 08:20:27;;;;;;;;;5.00;4.00;;;;;9.84;85.62;101484.41;5105262;27;45410;-49
2023/12/27 08:22:52;;;;;;;;;4.00;4.00;;;;;9.84;85.69;101491.50;5108945;27;60318;-49
2023/12/27 08:25:18;;;;;;;;;3.67;3.00;;;;;9.84;85.85;101492.38;5108862;27;45414;-49
2023/12/27 08:27:43;;;;;;;;;4.33;4.33;;;;;9.87;86.01;101502.03;5107596;27;45578;-49
2023/12/27 08:30:08;;;;;;;;;6.00;5.00;;;;;9.86;84.53;101492.31;5106525;27;64164;-51
2023/12/27 08:32:34;;;;;;;;;3.67;3.33;;;;;9.85;84.42;101491.44;5098505;27;45365;-49
2023/12/27 08:35:00;;;;;;;;;4.67;3.33;;;;;9.83;83.89;101488.00;5100223;27;67743;-52
2023/12/27 08:37:26;;;;;;;;;4.33;4.00;;;;;9.82;83.82;101485.38;5120561;27;45648;-50
2023/12/27 08:39:51;;;;;;;;;4.67;4.00;;;;;9.83;84.23;101476.47;5107486;27;45371;-50
2023/12/27 08:42:16;;;;;;;;;4.00;2.67;;;;;9.81;83.08;101471.22;5105907;27;74008;-49
2023/12/27 08:44:41;;;;;;;;;4.00;3.00;;;;;9.83;83.41;101476.47;5095820;27;60520;-52
2023/12/27 08:47:07;;;;;;;;;3.00;3.00;;;;;9.83;83.40;101480.03;5106020;27;69361;-50
2023/12/27 08:49:32;;;;;;;;;3.33;2.00;;;;;9.85;83.17;101477.28;5106115;27;73193;-53
2023/12/27 08:51:58;;;;;;;;;3.67;3.00;;;;;9.88;82.33;101469.19;5107121;27;45402;-51
2023/12/27 08:54:25;;;;;;;;;3.00;3.00;;;;;9.90;82.29;101475.34;5107219;27;45512;-52
2023/12/27 08:56:50;;;;;;;;;3.67;2.00;;;;;9.92;81.78;101468.16;5098531;27;45643;-50
2023/12/27 08:59:16;;;;;;;;;4.00;4.00;;;;;9.94;82.12;101463.66;5113994;27;45999;-51
2023/12/27 09:01:41;;;;;;;;;4.00;4.00;;;;;9.98;81.27;101472.41;5106208;27;70282;-51
2023/12/27 09:04:06;;;;;;;;;5.33;4.00;;;;;9.98;81.26;101477.72;5106286;27;59685;-53
2023/12/27 09:06:31;;;;;;;;;4.00;4.00;;;;;10.01;80.45;101470.50;5084838;27;69113;-51
2023/12/27 09:08:57;;;;;;;;;4.00;4.00;;;;;10.06;81.26;101470.31;5099330;27;75541;-52
2023/12/27 09:11:22;;;;;;;;;5.00;4.00;;;;;10.13;81.38;101470.97;5113707;27;46945;-53
2023/12/27 09:13:47;;;;;;;;;3.00;3.00;;;;;10.22;81.64;101475.91;5113594;27;67490;-51
2023/12/27 09:16:13;;;;;;;;;4.00;4.00;;;;;10.23;80.07;101470.56;5117370;27;69398;-51
2023/12/27 09:18:38;;;;;;;;;2.00;2.00;;;;;10.27;79.17;101469.53;5081210;27;46697;-51
2023/12/27 09:21:04;;;;;;;;;6.00;4.00;;;;;10.31;80.15;101458.75;5095419;27;69869;-53
2023/12/27 09:23:29;;;;;;;;;6.33;5.00;;;;;10.32;78.77;101469.34;5113900;27;45310;-53
2023/12/27 09:25:54;;;;;;;;;2.67;2.67;;;;;10.32;78.83;101468.47;5100001;27;68253;-50
2023/12/27 09:28:21;;;;;;;;;4.67;3.00;;;;;10.37;79.76;101459.41;5101124;27;69376;-53
2023/12/27 09:30:47;;;;;;;;;3.00;3.00;;;;;10.41;78.12;101462.84;5101887;27;45360;-51
2023/12/27 09:33:12;;;;;;;;;4.00;4.00;;;;;10.43;78.92;101459.19;5093746;27;45411;-52
2023/12/27 09:35:38;;;;;;;;;4.67;3.67;;;;;10.52;78.69;101451.75;5099162;27;69268;-53
2023/12/27 09:38:03;;;;;;;;;4.67;2.67;;;;;10.57;76.55;101444.47;5099592;27;45562;-50
2023/12/27 09:40:28;;;;;;;;;5.00;3.33;;;;;10.58;76.04;101462.16;5108875;27;45448;-54
2023/12/27 09:42:55;;;;;;;;;3.00;3.00;;;;;10.59;76.31;101456.78;5104001;27;45274;-52
2023/12/27 09:45:22;;;;;;;;;4.00;4.00;;;;;10.62;76.04;101461.13;5098177;27;45583;-50
2023/12/27 09:47:53;;;;;;;;;3.67;3.00;;;;;10.69;76.19;101462.63;5112547;27;46266;-50
2023/12/27 09:50:19;;;;;;;;;4.00;4.00;;;;;10.80;76.31;101464.84;5104449;27;45460;-51
2023/12/27 09:52:46;;;;;;;;;4.33;4.00;;;;;10.86;74.30;101453.94;5093436;27;45476;-50
2023/12/27 09:55:11;;;;;;;;;5.00;2.67;;;;;10.96;75.56;101449.09;5099984;27;45815;-52
2023/12/27 09:57:37;;;;;;;;;4.33;2.00;;;;;11.18;75.60;101438.41;5109940;27;46106;-51
2023/12/27 10:00:05;;;;;;;;;4.33;4.33;;;;;11.47;72.58;101438.09;5094243;27;45406;-52
2023/12/27 10:02:33;;;;;;;;;4.67;3.67;;;;;11.74;71.46;101436.03;5086182;27;45495;-52
2023/12/27 10:05:30;;;;;;;;;4.67;4.00;;;;;11.96;72.73;101437.75;5103684;27;45624;-48
2023/12/27 10:07:56;;;;;;;;;4.00;3.00;;;;;12.21;71.43;101437.47;5103053;27;45330;-51
2023/12/27 10:10:21;;;;;;;;;4.00;4.00;;;;;12.25;69.08;101428.41;5103509;27;59412;-51
2023/12/27 10:12:49;;;;;;;;;4.00;3.00;;;;;12.36;70.79;101420.75;5097379;27;45982;-50
2023/12/27 10:15:15;;;;;;;;;4.00;3.67;;;;;12.53;68.81;101419.94;5107703;27;45349;-50
2023/12/27 10:17:40;;;;;;;;;4.33;4.33;;;;;12.62;67.35;101412.41;5092050;27;46335;-53
2023/12/27 10:20:07;;;;;;;;;3.00;3.00;;;;;12.74;69.05;101401.16;5111316;27;45458;-49
2023/12/27 10:22:33;;;;;;;;;7.00;5.00;;;;;12.89;68.24;101405.75;5107836;27;45373;-49
2023/12/27 10:24:59;;;;;;;;;6.67;4.00;;;;;12.87;64.83;101410.28;5098832;27;45448;-52
2023/12/27 10:27:28;;;;;;;;;3.00;3.00;;;;;12.75;67.44;101402.91;5110507;27;69286;-52
2023/12/27 10:29:53;;;;;;;;;5.00;4.00;;;;;12.78;68.43;101401.88;5108930;27;45286;-53
2023/12/27 10:32:19;;;;;;;;;3.33;3.33;;;;;12.78;66.95;101394.72;5111272;27;54041;-52
2023/12/27 10:34:45;;;;;;;;;5.00;3.00;;;;;12.81;65.56;101391.88;5100850;27;45277;-52
2023/12/27 10:37:12;;;;;;;;;4.67;3.33;;;;;12.85;67.51;101392.59;5093981;27;45381;-52
2023/12/27 10:39:44;;;;;;;;;3.00;3.00;;;;;12.85;65.90;101380.13;5100884;27;45390;-52
2023/12/27 10:42:12;;;;;;;;;6.67;4.00;;;;;12.94;67.13;101375.25;5093672;27;45423;-52
2023/12/27 10:44:37;;;;;;;;;3.67;3.67;;;;;13.02;66.53;101373.94;5099925;27;45839;-52
2023/12/27 10:47:04;;;;;;;;;4.00;4.00;;;;;13.06;63.34;101369.28;5098034;27;70689;-52
2023/12/27 10:49:31;;;;;;;;;4.00;3.00;;;;;13.02;64.42;101357.03;5092276;27;45491;-50
2023/12/27 10:51:58;;;;;;;;;3.67;3.67;;;;;13.11;65.84;101353.88;5104966;27;45364;-52
2023/12/27 10:54:24;;;;;;;;;6.00;3.67;;;;;13.14;63.50;101340.38;5094327;27;45525;-53
2023/12/27 10:56:52;;;;;;;;;3.00;2.00;;;;;13.11;62.98;101337.84;5090484;27;75004;-50
2023/12/27 10:59:18;;;;;;;;;1.67;1.67;;;;;13.27;64.63;101327.25;5111407;27;45524;-52
2023/12/27 11:01:44;;;;;;;;;5.00;4.00;;;;;13.53;62.73;101325.88;5100981;27;45511;-53
2023/12/27 11:04:11;;;;;;;;;4.67;2.00;;;;;13.67;62.06;101311.75;5093997;27;45787;-52
2023/12/27 11:06:39;;;;;;;;;3.67;3.00;;;;;13.76;63.11;101309.53;5096458;27;46099;-50
2023/12/27 11:09:09;;;;;;;;;5.33;4.00;;;;;13.74;60.69;101301.59;5109613;27;45363;-52
2023/12/27 11:11:38;;;;;;;;;4.00;2.33;;;;;13.70;62.50;101300.91;5103620;27;45436;-53
2023/12/27 11:14:05;;;;;;;;;4.67;3.00;;;;;13.77;62.68;101301.44;5108645;27;45457;-52
2023/12/27 11:16:33;;;;;;;;;4.00;4.00;;;;;13.65;60.79;101294.06;5093202;27;47337;-52
2023/12/27 11:18:59;;;;;;;;;3.67;3.67;;;;;13.45;60.20;101284.47;5103564;27;45776;-52